KPHX/PHX METAR and TAF weather

Enter ICAO airport designator
Station Type Date Time Source
KPHX METAR 2021/04/13 07:51 UTC NOAA

KPHX 130751Z 11004KT 10SM CLR 24/03 A2971 RMK AO2 SLP045 T02390033


Station Type Date Time Source
KPHX Decoded METAR 2021/04/13 07:51 UTC NOAA

Phoenix, Phoenix Sky Harbor International Airport, AZ, United States (KPHX) 33-26-03N 112-03-04W 336M
Apr 13, 2021 - 03:51 AM EDT / 2021.04.13 0751 UTC
Wind: from the ESE (110 degrees) at 5 MPH (4 KT):0
Visibility: 10 mile(s):0
Sky conditions: clear
Temperature: 75.0 F (23.9 C)
Dew Point: 37.9 F (3.3 C)
Relative Humidity: 26%
Pressure (altimeter): 29.71 in. Hg (1006 hPa)
ob: KPHX 130751Z 11004KT 10SM CLR 24/03 A2971 RMK AO2 SLP045 T02390033
cycle: 8

Station Type Date Time Source
KPHX TAF 2021/04/13 06:22 UTC NOAA

TAF KPHX 130520Z 1306/1412 24006KT P6SM SKC
FM130900 09006KT P6SM FEW250
FM131500 15006KT P6SM FEW250
FM131700 19009KT P6SM FEW250
FM132100 24012G24KT P6SM FEW250
FM140500 27008KT P6SM FEW250

Example: see airport list